Time;durP1;ratioP1;P1;durP2;ratioP2;P2;SDS_P1;SDS_P2;PMS_P1;PMS_P2;Temp;Humidity;BMP_temperature;BMP_pressure;BME280_temperature;BME280_humidity;BME280_pressure;Samples;Min_cycle;Max_cycle;Signal;HPM_P1;HPM_P2
2022/03/14 00:02:14;;;;;;;15.75;5.40;;;;;;;-5.76;84.97;91883.50;5008160;28;20125;-66
2022/03/14 00:04:40;;;;;;;11.90;4.85;;;;;;;-5.78;84.84;91880.28;4991923;28;20076;-66
2022/03/14 00:07:05;;;;;;;14.68;5.93;;;;;;;-5.85;84.96;91878.63;4991556;28;20062;-66
2022/03/14 00:09:31;;;;;;;12.65;6.28;;;;;;;-5.88;84.87;91881.59;4991537;28;20030;-66
2022/03/14 00:11:57;;;;;;;7.90;4.35;;;;;;;-6.05;85.39;91881.88;4991487;28;20022;-66
2022/03/14 00:14:25;;;;;;;7.13;3.67;;;;;;;-6.16;85.77;91874.59;4991522;28;20026;-66
2022/03/14 00:16:55;;;;;;;8.52;4.72;;;;;;;-6.22;86.41;91884.91;4991531;28;20034;-66
2022/03/14 00:19:20;;;;;;;11.10;5.40;;;;;;;-6.36;86.80;91871.84;4991501;28;20404;-66
2022/03/14 00:21:46;;;;;;;11.15;5.30;;;;;;;-6.36;86.97;91877.00;4991315;28;20030;-66
2022/03/14 00:24:12;;;;;;;14.43;5.30;;;;;;;-6.35;87.50;91886.38;4991463;28;20023;-66
2022/03/14 00:26:39;;;;;;;11.73;5.47;;;;;;;-6.34;87.13;91885.41;4991465;28;20455;-67
2022/03/14 00:29:08;;;;;;;9.45;5.38;;;;;;;-6.46;87.94;91893.84;4991225;28;20033;-66
2022/03/14 00:31:34;;;;;;;8.55;3.83;;;;;;;-6.44;88.22;91891.88;4991219;28;20453;-67
2022/03/14 00:33:59;;;;;;;8.48;4.55;;;;;;;-6.51;88.67;91878.06;4973919;28;20126;-66
2022/03/14 00:36:25;;;;;;;9.50;4.50;;;;;;;-6.58;89.24;91878.00;4991357;28;20038;-66
2022/03/14 00:38:51;;;;;;;9.38;4.15;;;;;;;-6.65;90.10;91888.25;4991556;28;20027;-66
2022/03/14 00:41:17;;;;;;;9.18;5.10;;;;;;;-6.74;90.90;91885.97;4991243;28;20035;-66
2022/03/14 00:43:43;;;;;;;9.80;5.00;;;;;;;-6.78;91.77;91892.50;4991234;28;20599;-66
2022/03/14 00:46:08;;;;;;;14.35;5.30;;;;;;;-6.95;92.62;91892.69;4991255;28;20038;-66
2022/03/14 00:48:35;;;;;;;6.13;3.90;;;;;;;-6.98;93.41;91890.47;4991235;28;20030;-66
2022/03/14 00:51:03;;;;;;;8.27;4.78;;;;;;;-7.02;93.96;91896.97;4991387;28;20069;-66
2022/03/14 00:53:30;;;;;;;5.40;3.10;;;;;;;-6.94;94.18;91890.94;4991220;28;20053;-66
2022/03/14 00:55:55;;;;;;;7.90;3.92;;;;;;;-6.96;93.56;91888.50;4991083;28;20061;-66
2022/03/14 00:58:21;;;;;;;10.07;3.88;;;;;;;-6.89;93.15;91887.78;4990810;28;20054;-66
2022/03/14 01:00:48;;;;;;;6.07;3.10;;;;;;;-6.81;92.35;91896.22;4990969;28;20471;-66
2022/03/14 01:03:14;;;;;;;11.32;4.40;;;;;;;-6.80;91.38;91890.06;4990996;28;20054;-67
2022/03/14 01:05:40;;;;;;;11.45;3.83;;;;;;;-6.78;91.05;91897.69;4991097;28;20045;-67
2022/03/14 01:08:06;;;;;;;4.10;3.13;;;;;;;-6.85;90.79;91896.78;4994516;28;20030;-66
2022/03/14 01:10:32;;;;;;;8.43;4.70;;;;;;;-6.85;90.45;91899.38;4994462;28;20034;-66
2022/03/14 01:12:58;;;;;;;8.32;4.88;;;;;;;-6.93;90.55;91895.13;4994625;28;20080;-67
2022/03/14 01:15:24;;;;;;;9.13;4.88;;;;;;;-6.96;91.17;91898.84;4994507;28;20030;-66
2022/03/14 01:17:50;;;;;;;10.05;5.25;;;;;;;-6.98;91.47;91902.59;4994370;28;20034;-66
2022/03/14 01:20:16;;;;;;;6.95;4.07;;;;;;;-7.04;91.94;91901.53;4994267;28;20030;-67
2022/03/14 01:22:41;;;;;;;11.52;4.80;;;;;;;-7.05;92.29;91894.75;4994393;28;20126;-67
2022/03/14 01:25:07;;;;;;;5.05;3.17;;;;;;;-6.99;91.77;91908.75;4994641;28;20062;-66
2022/03/14 01:27:33;;;;;;;7.78;3.90;;;;;;;-6.98;91.58;91910.34;4994427;28;20027;-66
2022/03/14 01:29:58;;;;;;;7.53;4.25;;;;;;;-7.07;91.74;91908.84;4994153;28;20034;-66
2022/03/14 01:32:23;;;;;;;6.28;3.72;;;;;;;-7.19;92.75;91905.13;4994201;28;20496;-66
2022/03/14 01:34:49;;;;;;;7.32;3.63;;;;;;;-7.27;93.70;91906.00;4994212;28;20037;-66
2022/03/14 01:37:18;;;;;;;6.45;3.70;;;;;;;-7.23;94.61;91911.63;4994148;28;20033;-66
2022/03/14 01:39:44;;;;;;;7.15;4.30;;;;;;;-7.22;94.93;91911.44;4993972;28;20571;-66
2022/03/14 01:42:20;;;;;;;6.97;4.70;;;;;;;-7.22;94.63;91900.31;4994099;28;20034;-66
2022/03/14 01:44:47;;;;;;;7.13;4.28;;;;;;;-7.20;94.60;91906.91;4994010;28;20459;-66
2022/03/14 01:47:16;;;;;;;5.93;3.08;;;;;;;-7.12;93.63;91908.56;4993927;28;20121;-65
2022/03/14 01:49:43;;;;;;;9.93;4.75;;;;;;;-7.15;93.73;91912.31;4993790;28;20025;-65
2022/03/14 01:52:09;;;;;;;8.77;4.55;;;;;;;-7.12;93.82;91919.72;4993825;28;20538;-65
2022/03/14 01:54:36;;;;;;;6.07;3.35;;;;;;;-7.02;93.23;91915.09;4993843;28;20066;-66
2022/03/14 01:57:02;;;;;;;4.07;3.05;;;;;;;-6.97;92.40;91925.69;4993811;28;20058;-66
2022/03/14 01:59:29;;;;;;;4.35;2.92;;;;;;;-6.90;92.00;91918.03;4993836;28;20062;-65
2022/03/14 02:01:56;;;;;;;9.75;5.10;;;;;;;-6.92;91.22;91920.00;4993534;28;20432;-66
2022/03/14 02:04:22;;;;;;;9.23;5.05;;;;;;;-7.00;91.13;91914.91;4993645;28;20026;-66
2022/03/14 02:06:51;;;;;;;7.22;3.60;;;;;;;-7.04;91.08;91922.22;4993578;28;20026;-65
2022/03/14 02:09:17;;;;;;;8.48;3.72;;;;;;;-7.24;92.22;91923.75;4993730;28;20030;-65
2022/03/14 02:11:54;;;;;;;7.68;4.55;;;;;;;-7.22;93.14;91929.53;4993417;28;20045;-66
2022/03/14 02:14:20;;;;;;;9.57;5.45;;;;;;;-7.27;93.90;91942.19;4993410;28;20085;-65
2022/03/14 02:16:46;;;;;;;7.43;4.45;;;;;;;-7.27;94.04;91937.00;4993394;28;20030;-65
2022/03/14 02:19:12;;;;;;;6.43;3.78;;;;;;;-7.31;93.74;91936.56;4992288;28;20089;-65
2022/03/14 02:21:38;;;;;;;7.45;4.03;;;;;;;-7.29;93.95;91944.16;4993257;28;20089;-65
2022/03/14 02:24:04;;;;;;;11.48;5.85;;;;;;;-7.25;94.13;91940.25;4975741;28;20041;-65
2022/03/14 02:26:30;;;;;;;3.83;2.65;;;;;;;-7.12;93.47;91940.41;4993233;28;20041;-65
2022/03/14 02:28:55;;;;;;;4.60;2.97;;;;;;;-6.97;92.31;91948.16;4993163;28;20042;-65
2022/03/14 02:31:20;;;;;;;7.80;4.32;;;;;;;-6.96;91.43;91950.56;4992974;28;20069;-65
2022/03/14 02:33:46;;;;;;;5.78;3.65;;;;;;;-7.01;91.27;91952.91;4993028;28;20054;-65
2022/03/14 02:36:11;;;;;;;7.50;4.07;;;;;;;-7.13;91.81;91951.72;4993064;28;20030;-65
2022/03/14 02:38:37;;;;;;;10.30;5.22;;;;;;;-7.18;92.92;91955.84;4992964;28;20041;-66
2022/03/14 02:41:02;;;;;;;8.50;4.60;;;;;;;-7.21;93.91;91959.59;4992873;28;20400;-66
2022/03/14 02:43:28;;;;;;;11.65;4.88;;;;;;;-7.22;94.04;91957.97;4992919;28;20513;-65
2022/03/14 02:45:54;;;;;;;12.52;5.88;;;;;;;-7.28;94.25;91962.06;4992783;28;20031;-65
2022/03/14 02:48:23;;;;;;;10.35;5.32;;;;;;;-7.40;93.88;91962.69;4992800;28;20036;-65
2022/03/14 02:50:53;;;;;;;10.90;5.35;;;;;;;-7.43;93.51;91968.19;4992796;28;20030;-65
2022/03/14 02:53:19;;;;;;;8.05;4.75;;;;;;;-7.55;94.35;91970.41;4992711;28;20113;-64
2022/03/14 02:55:45;;;;;;;10.30;4.97;;;;;;;-7.57;94.79;91969.78;4992668;28;20519;-65
2022/03/14 02:58:11;;;;;;;8.45;4.78;;;;;;;-7.59;95.23;91971.72;4992429;28;20039;-65
2022/03/14 03:00:37;;;;;;;7.28;4.15;;;;;;;-7.60;95.52;91977.88;4992458;28;20029;-66
2022/03/14 03:03:06;;;;;;;6.20;3.08;;;;;;;-7.71;95.19;91965.38;4994106;28;20058;-66
2022/03/14 03:05:34;;;;;;;5.45;3.35;;;;;;;-7.62;95.06;91975.47;5161898;22;20061;-65
2022/03/14 03:08:00;;;;;;;9.15;4.55;;;;;;;-7.63;95.02;91986.78;5012319;28;20040;-66
2022/03/14 03:10:26;;;;;;;8.00;3.58;;;;;;;-7.66;95.37;91974.22;5012166;28;20041;-66
2022/03/14 03:12:52;;;;;;;8.90;5.07;;;;;;;-7.72;95.57;91980.09;5011923;28;20033;-65
2022/03/14 03:15:18;;;;;;;7.32;3.95;;;;;;;-7.72;95.90;91987.03;5011812;28;20475;-65
2022/03/14 03:17:44;;;;;;;8.52;3.55;;;;;;;-7.77;95.96;91982.38;5011843;28;20438;-65
2022/03/14 03:20:10;;;;;;;4.88;3.47;;;;;;;-7.83;95.67;91997.75;5011776;28;20029;-65
2022/03/14 03:22:36;;;;;;;5.85;3.63;;;;;;;-7.83;96.00;91992.59;5011764;28;20140;-66
2022/03/14 03:25:01;;;;;;;15.88;5.07;;;;;;;-7.82;96.50;91987.25;5011743;28;20030;-65
2022/03/14 03:27:27;;;;;;;16.08;6.57;;;;;;;-7.91;96.73;91991.66;5011711;28;20026;-65
2022/03/14 03:29:52;;;;;;;10.57;4.05;;;;;;;-7.87;97.21;91992.16;5011368;28;20029;-66
2022/03/14 03:32:18;;;;;;;8.20;4.13;;;;;;;-7.84;97.17;91999.53;5011628;28;20546;-65
2022/03/14 03:34:43;;;;;;;3.78;2.35;;;;;;;-7.81;96.97;91998.38;5011592;28;20034;-65
2022/03/14 03:37:08;;;;;;;8.27;4.63;;;;;;;-7.89;97.04;91997.50;5011563;28;20041;-65
2022/03/14 03:39:34;;;;;;;5.38;3.10;;;;;;;-7.84;97.48;91991.78;5011608;28;20457;-65
2022/03/14 03:41:59;;;;;;;8.15;3.25;;;;;;;-7.75;96.93;92000.28;5011533;28;20026;-65
2022/03/14 03:44:25;;;;;;;7.63;4.38;;;;;;;-7.78;96.59;92010.94;5011336;28;20487;-65
2022/03/14 03:46:50;;;;;;;7.93;5.03;;;;;;;-7.71;96.46;92007.53;5011356;28;20026;-65
2022/03/14 03:49:15;;;;;;;11.93;4.43;;;;;;;-7.69;96.07;92012.50;5011358;28;20041;-65
2022/03/14 03:51:41;;;;;;;8.93;4.78;;;;;;;-7.65;95.61;92019.72;5011554;28;20030;-65
2022/03/14 03:54:06;;;;;;;6.72;3.30;;;;;;;-7.60;95.19;92025.16;5011632;28;20589;-65
2022/03/14 03:56:34;;;;;;;12.57;4.88;;;;;;;-7.62;95.04;92029.72;5011278;28;20053;-66
2022/03/14 03:59:00;;;;;;;7.93;4.45;;;;;;;-7.66;95.80;92030.25;5011572;28;20418;-66
2022/03/14 04:01:25;;;;;;;9.15;5.00;;;;;;;-7.71;96.38;92025.59;5011258;28;20026;-66
2022/03/14 04:03:54;;;;;;;8.18;4.07;;;;;;;-7.69;96.99;92038.34;5011243;28;20041;-66
2022/03/14 04:06:25;;;;;;;11.02;4.13;;;;;;;-7.76;96.75;92040.78;5027697;28;20049;-66
2022/03/14 04:08:50;;;;;;;9.68;3.97;;;;;;;-7.80;97.15;92036.97;5030794;28;20065;-66
2022/03/14 04:11:16;;;;;;;6.03;3.88;;;;;;;-7.85;97.19;92042.66;5030873;28;20171;-66
2022/03/14 04:13:42;;;;;;;7.80;4.32;;;;;;;-7.85;97.42;92045.22;5030865;28;20108;-65
2022/03/14 04:16:07;;;;;;;9.55;4.38;;;;;;;-7.86;97.48;92053.16;5030670;28;20041;-65
2022/03/14 04:18:33;;;;;;;7.40;4.25;;;;;;;-7.88;97.82;92055.09;5030778;28;20049;-66
2022/03/14 04:20:59;;;;;;;6.40;3.28;;;;;;;-7.93;97.86;92052.22;5030790;28;20128;-65
2022/03/14 04:23:24;;;;;;;9.75;5.60;;;;;;;-7.94;97.64;92055.78;5021546;28;20038;-67
2022/03/14 04:25:50;;;;;;;7.55;4.05;;;;;;;-7.93;97.55;92055.59;5030403;28;20029;-66
2022/03/14 04:28:16;;;;;;;11.15;5.22;;;;;;;-8.11;98.14;92056.84;5030402;28;20044;-66
2022/03/14 04:30:42;;;;;;;7.05;3.70;;;;;;;-8.11;98.71;92054.25;5030464;28;20026;-66
2022/03/14 04:33:08;;;;;;;6.10;3.22;;;;;;;-8.08;98.94;92056.50;5030451;28;20038;-65
2022/03/14 04:35:37;;;;;;;10.38;3.83;;;;;;;-8.06;98.59;92064.88;5030319;28;20045;-65
2022/03/14 04:38:04;;;;;;;4.60;2.75;;;;;;;-8.05;98.10;92062.13;5030120;28;20414;-63
2022/03/14 04:40:32;;;;;;;5.10;3.08;;;;;;;-8.03;98.14;92069.72;5030632;28;20576;-63
2022/03/14 04:42:58;;;;;;;9.25;4.78;;;;;;;-8.01;97.98;92067.78;5033854;28;20466;-63
2022/03/14 04:45:23;;;;;;;7.28;4.15;;;;;;;-7.88;98.15;92068.81;5034256;28;20057;-61
2022/03/14 04:47:48;;;;;;;6.95;3.13;;;;;;;-7.73;97.23;92057.72;5034167;28;20120;-62
2022/03/14 04:50:16;;;;;;;7.38;4.32;;;;;;;-7.74;96.29;92067.25;5033988;28;20029;-62
2022/03/14 04:52:41;;;;;;;16.75;4.90;;;;;;;-7.81;96.51;92070.72;5033618;28;20471;-62
2022/03/14 04:55:07;;;;;;;8.35;3.97;;;;;;;-7.89;96.55;92076.72;5033906;28;20117;-63
2022/03/14 04:57:33;;;;;;;12.95;5.93;;;;;;;-7.87;96.03;92074.78;5033936;28;20108;-66
2022/03/14 04:59:58;;;;;;;32.80;12.77;;;;;;;-7.85;96.00;92083.16;5033676;28;20108;-64
2022/03/14 05:02:24;;;;;;;25.02;11.82;;;;;;;-7.82;95.89;92084.59;5033934;28;20064;-64
2022/03/14 05:04:50;;;;;;;21.05;10.43;;;;;;;-7.93;96.08;92090.94;5029226;28;20132;-64
2022/03/14 05:07:16;;;;;;;12.77;6.00;;;;;;;-7.92;95.82;92084.81;5013984;28;20033;-64
2022/03/14 05:09:41;;;;;;;12.65;6.00;;;;;;;-7.88;95.69;92104.16;5013638;28;20022;-64
2022/03/14 05:12:08;;;;;;;12.38;5.50;;;;;;;-7.91;96.36;92107.06;5014999;28;20030;-63
2022/03/14 05:14:34;;;;;;;16.10;7.68;;;;;;;-7.88;96.23;92106.75;5024678;28;20025;-63
2022/03/14 05:17:00;;;;;;;12.18;6.03;;;;;;;-7.80;95.84;92108.47;5033610;28;20033;-63
2022/03/14 05:19:26;;;;;;;13.63;7.60;;;;;;;-7.83;96.07;92099.28;5033523;28;20029;-64
2022/03/14 05:21:51;;;;;;;12.88;5.97;;;;;;;-7.76;95.41;92115.69;5033569;28;20026;-62
2022/03/14 05:24:16;;;;;;;5.80;3.42;;;;;;;-7.65;94.16;92109.34;5032990;28;20367;-63
2022/03/14 05:26:43;;;;;;;13.55;6.63;;;;;;;-7.64;93.63;92116.13;5007935;28;20088;-63
2022/03/14 05:29:12;;;;;;;55.28;22.40;;;;;;;-7.61;92.38;92118.34;5013534;28;20034;-63
2022/03/14 05:31:38;;;;;;;6.80;5.03;;;;;;;-7.54;91.56;92127.06;5008766;28;20092;-65
2022/03/14 05:34:04;;;;;;;10.95;5.80;;;;;;;-7.53;91.24;92127.84;5013658;28;20030;-64
2022/03/14 05:36:29;;;;;;;12.98;5.38;;;;;;;-7.49;90.66;92132.50;5013516;28;20037;-64
2022/03/14 05:38:55;;;;;;;18.85;7.45;;;;;;;-7.47;90.24;92130.53;5013428;28;20041;-64
2022/03/14 05:41:20;;;;;;;23.55;8.23;;;;;;;-7.55;90.34;92136.59;5013384;28;20025;-64
2022/03/14 05:43:45;;;;;;;48.58;16.00;;;;;;;-7.45;90.79;92144.09;5013565;28;20426;-65
2022/03/14 05:46:11;;;;;;;74.20;25.23;;;;;;;-7.45;91.27;92140.72;5013473;28;20033;-65
2022/03/14 05:48:37;;;;;;;38.85;17.00;;;;;;;-7.20;90.34;92137.00;5013459;28;20022;-65
2022/03/14 05:51:07;;;;;;;43.22;16.42;;;;;;;-6.97;88.57;92144.72;5013254;28;20519;-65
2022/03/14 05:53:33;;;;;;;51.20;18.02;;;;;;;-6.89;87.13;92141.28;5013271;28;20033;-65
2022/03/14 05:55:58;;;;;;;51.67;17.85;;;;;;;-6.84;86.33;92149.31;5013092;28;20153;-65
2022/03/14 05:58:24;;;;;;;32.03;12.90;;;;;;;-6.58;85.65;92149.72;4995672;28;20136;-65
2022/03/14 06:00:52;;;;;;;26.52;12.38;;;;;;;-4.81;80.95;92141.59;5013223;28;20038;-65
2022/03/14 06:03:21;;;;;;;27.33;13.35;;;;;;;-4.73;73.05;92120.72;5013198;28;20510;-66
2022/03/14 06:05:50;;;;;;;38.33;12.15;;;;;;;-3.86;70.55;92148.06;5012959;28;20122;-67
2022/03/14 06:08:16;;;;;;;25.25;12.65;;;;;;;-4.42;69.16;92154.09;5013128;28;20104;-65
2022/03/14 06:10:45;;;;;;;35.88;14.93;;;;;;;-3.45;67.08;92148.84;5012909;28;20082;-65
2022/03/14 06:13:12;;;;;;;33.67;14.10;;;;;;;-2.29;61.39;92148.63;5013011;28;20130;-65
2022/03/14 06:15:38;;;;;;;40.63;17.48;;;;;;;-2.93;62.54;92155.19;5012940;28;20026;-65
2022/03/14 06:18:04;;;;;;;20.35;11.48;;;;;;;-2.71;61.45;92159.22;5012975;28;20187;-65
2022/03/14 06:20:29;;;;;;;31.35;14.93;;;;;;;-2.14;60.88;92160.47;5012864;28;20084;-65
2022/03/14 06:22:55;;;;;;;44.05;20.77;;;;;;;-1.17;58.63;92158.81;5012825;28;20057;-66
2022/03/14 06:25:20;;;;;;;51.13;18.08;;;;;;;-0.85;57.11;92172.72;5012718;28;20084;-66
2022/03/14 06:27:46;;;;;;;30.45;13.30;;;;;;;-0.47;54.86;92172.72;5012757;28;20107;-66
2022/03/14 06:30:13;;;;;;;23.55;12.68;;;;;;;0.65;53.48;92168.31;5012615;28;20411;-66
2022/03/14 06:32:41;;;;;;;35.85;15.07;;;;;;;3.91;48.62;92166.84;5012584;28;20034;-66
2022/03/14 06:35:09;;;;;;;21.73;12.13;;;;;;;7.66;40.91;92165.66;5012762;28;20055;-66
2022/03/14 06:37:35;;;;;;;28.85;14.55;;;;;;;8.67;37.80;92165.03;5012651;28;20409;-66
2022/03/14 06:40:02;;;;;;;30.27;16.27;;;;;;;9.24;35.81;92179.81;5012649;28;20021;-66
2022/03/14 06:42:28;;;;;;;33.65;17.23;;;;;;;9.18;35.27;92175.59;5012374;28;20484;-66
2022/03/14 06:44:58;;;;;;;42.53;22.90;;;;;;;8.53;36.21;92179.91;5012185;28;20507;-66
2022/03/14 06:47:24;;;;;;;40.55;18.92;;;;;;;7.93;36.54;92178.72;5012649;28;20037;-66
2022/03/14 06:49:49;;;;;;;26.70;14.32;;;;;;;6.67;38.07;92179.72;5012364;28;20462;-66
2022/03/14 06:52:16;;;;;;;19.55;12.10;;;;;;;8.26;36.65;92185.41;5012211;28;20030;-66
2022/03/14 06:54:42;;;;;;;15.15;9.30;;;;;;;9.26;34.86;92188.31;5012412;28;20033;-66
2022/03/14 06:57:09;;;;;;;17.92;10.10;;;;;;;10.28;34.02;92190.59;5012229;28;20487;-66
2022/03/14 06:59:35;;;;;;;23.33;12.65;;;;;;;12.69;32.13;92185.97;5012271;28;20034;-66
2022/03/14 07:02:02;;;;;;;22.05;11.32;;;;;;;13.88;30.10;92183.66;5012249;28;20036;-66
2022/03/14 07:04:27;;;;;;;55.55;30.98;;;;;;;14.08;29.42;92186.75;5011305;28;20030;-67
2022/03/14 07:06:53;;;;;;;23.00;13.90;;;;;;;14.96;28.63;92194.50;4994407;28;20474;-66
2022/03/14 07:09:19;;;;;;;15.85;11.68;;;;;;;14.82;28.50;92194.53;4994430;28;20041;-66
2022/03/14 07:11:45;;;;;;;22.45;11.50;;;;;;;15.34;27.60;92180.72;4994153;28;20038;-66
2022/03/14 07:14:10;;;;;;;20.30;11.98;;;;;;;15.96;27.20;92189.59;5011746;28;20041;-67
2022/03/14 07:16:36;;;;;;;10.70;7.25;;;;;;;15.99;27.07;92188.16;5011794;28;20419;-66
2022/03/14 07:19:02;;;;;;;25.45;13.13;;;;;;;15.06;28.22;92202.31;5011727;28;20041;-66
2022/03/14 07:21:32;;;;;;;22.63;12.13;;;;;;;17.26;26.43;92192.47;5011521;28;20452;-66
2022/03/14 07:23:58;;;;;;;34.03;13.48;;;;;;;18.50;25.72;92194.16;5011510;28;20444;-67
2022/03/14 07:26:24;;;;;;;22.67;12.55;;;;;;;18.83;25.02;92197.00;5011640;28;20139;-67
2022/03/14 07:28:50;;;;;;;15.52;11.95;;;;;;;19.28;24.19;92202.53;5011619;28;20093;-67
2022/03/14 07:31:17;;;;;;;20.90;13.30;;;;;;;18.75;25.02;92200.53;5011492;28;20033;-67
2022/03/14 07:33:43;;;;;;;23.33;14.43;;;;;;;19.56;24.00;92201.97;5011456;28;20034;-64
2022/03/14 07:36:09;;;;;;;12.50;8.25;;;;;;;18.95;24.23;92209.78;5011313;28;20042;-64
2022/03/14 07:38:35;;;;;;;26.35;12.27;;;;;;;20.72;23.32;92208.94;5011367;28;20042;-64
2022/03/14 07:41:00;;;;;;;18.52;8.90;;;;;;;21.40;22.31;92206.34;5011185;28;20513;-64
2022/03/14 07:43:26;;;;;;;18.75;9.02;;;;;;;17.77;24.42;92205.06;5011274;28;20108;-64
2022/03/14 07:45:51;;;;;;;28.50;15.55;;;;;;;19.94;23.50;92202.53;5011333;28;20034;-66
2022/03/14 07:48:17;;;;;;;27.20;13.90;;;;;;;18.94;24.72;92213.59;5011335;28;20041;-66
2022/03/14 07:50:43;;;;;;;43.85;22.20;;;;;;;15.41;29.02;92207.88;5011487;28;20045;-66
2022/03/14 07:53:08;;;;;;;63.28;26.52;;;;;;;13.76;29.97;92214.38;5011208;28;20492;-66
2022/03/14 07:55:34;;;;;;;62.63;35.58;;;;;;;13.55;30.59;92212.34;5011101;28;20422;-66
2022/03/14 07:57:59;;;;;;;60.53;30.83;;;;;;;14.75;29.70;92212.13;5011034;28;20072;-66
2022/03/14 08:00:25;;;;;;;112.00;52.90;;;;;;;16.11;28.51;92204.47;5011020;28;20073;-66
2022/03/14 08:02:50;;;;;;;95.40;44.35;;;;;;;14.51;29.87;92207.81;5010940;28;20077;-66
2022/03/14 08:05:23;;;;;;;234.88;101.50;;;;;;;14.83;29.48;92211.41;5010509;28;20522;-66
2022/03/14 08:07:49;;;;;;;;;;;;;;;17.44;27.42;92207.47;5011483;28;20651;-66
2022/03/14 08:10:18;;;;;;;67.95;33.83;;;;;;;16.51;28.68;92212.47;5010890;28;20019;-66
2022/03/14 08:12:49;;;;;;;128.80;74.80;;;;;;;14.79;29.50;92213.09;5010875;28;20141;-66
2022/03/14 08:15:40;;;;;;;45.65;23.33;;;;;;;12.30;33.10;92211.03;5010809;28;20089;-66
2022/03/14 08:18:08;;;;;;;84.82;30.17;;;;;;;11.91;33.14;92207.81;5010861;28;20471;-65
2022/03/14 08:20:34;;;;;;;118.60;74.78;;;;;;;14.35;31.54;92219.91;5014844;28;20523;-66
2022/03/14 08:23:02;;;;;;;95.35;33.03;;;;;;;13.27;31.23;92208.84;5014688;28;20052;-66
2022/03/14 08:25:29;;;;;;;65.85;28.00;;;;;;;14.14;30.59;92216.88;4997306;28;20411;-66
2022/03/14 08:27:55;;;;;;;44.05;22.33;;;;;;;14.30;30.92;92212.78;5014810;28;20038;-66
2022/03/14 08:30:21;;;;;;;67.28;33.97;;;;;;;11.75;34.49;92209.84;5014506;28;20037;-66
2022/03/14 08:32:47;;;;;;;143.15;67.03;;;;;;;13.35;32.65;92210.84;5014585;28;20076;-66
2022/03/14 08:35:15;;;;;;;69.07;34.25;;;;;;;13.09;33.62;92218.44;5014467;28;20169;-66
2022/03/14 08:37:43;;;;;;;46.13;28.02;;;;;;;10.96;33.41;92221.78;5014385;28;20046;-66
2022/03/14 08:40:10;;;;;;;32.90;14.25;;;;;;;11.07;33.72;92210.78;5014746;28;20113;-66
2022/03/14 08:42:40;;;;;;;27.20;15.77;;;;;;;10.56;32.95;92220.19;5014444;28;20038;-66
2022/03/14 08:45:07;;;;;;;37.65;18.00;;;;;;;11.47;33.49;92221.31;5014252;28;20042;-66
2022/03/14 08:47:34;;;;;;;16.85;10.10;;;;;;;12.62;33.04;92219.44;5014311;28;20047;-66
2022/03/14 08:50:02;;;;;;;13.70;8.43;;;;;;;11.38;32.67;92223.81;5014544;28;20042;-66
2022/03/14 08:52:28;;;;;;;21.67;11.48;;;;;;;9.73;34.71;92226.97;5014245;28;20074;-66
2022/03/14 08:54:53;;;;;;;20.75;9.68;;;;;;;10.15;34.93;92226.53;5014216;28;20038;-66
2022/03/14 08:57:19;;;;;;;23.85;13.80;;;;;;;10.63;35.23;92192.22;5014314;28;20171;-67
2022/03/14 08:59:44;;;;;;;33.28;17.33;;;;;;;11.54;33.82;92219.13;5014248;28;20122;-64
2022/03/14 09:02:11;;;;;;;36.78;19.63;;;;;;;12.18;34.16;92215.22;5014170;28;20037;-64
2022/03/14 09:04:37;;;;;;;29.00;14.02;;;;;;;12.55;33.48;92228.59;5016326;28;20607;-65
2022/03/14 09:07:02;;;;;;;32.50;13.77;;;;;;;11.97;32.85;92218.13;5033881;28;20096;-65
2022/03/14 09:09:28;;;;;;;66.32;33.35;;;;;;;11.54;34.71;92217.25;5033689;28;20466;-65
2022/03/14 09:11:54;;;;;;;8.85;6.43;;;;;;;11.23;33.71;92219.44;5033631;28;20732;-65
2022/03/14 09:14:19;;;;;;;57.78;29.00;;;;;;;9.85;34.92;92226.66;5015489;28;20048;-64
2022/03/14 09:16:46;;;;;;;34.15;18.33;;;;;;;11.22;36.27;92212.50;5033591;28;20033;-64
2022/03/14 09:19:13;;;;;;;17.17;8.60;;;;;;;12.26;34.42;92202.03;5033617;28;20495;-65
2022/03/14 09:21:38;;;;;;;17.63;9.20;;;;;;;9.66;37.17;92204.41;5033571;28;20045;-65
2022/03/14 09:24:04;;;;;;;16.42;9.43;;;;;;;9.97;35.52;92213.06;5033333;28;20045;-65
2022/03/14 09:26:32;;;;;;;14.63;9.18;;;;;;;8.77;36.59;92209.34;5033302;28;20050;-65
2022/03/14 09:28:59;;;;;;;12.65;6.63;;;;;;;10.88;37.39;92209.84;5033142;28;20037;-65
2022/03/14 09:31:24;;;;;;;11.45;7.10;;;;;;;11.69;34.89;92197.66;5033403;28;20105;-65
2022/03/14 09:33:50;;;;;;;17.38;8.55;;;;;;;10.97;35.81;92199.41;5033277;28;20041;-65
2022/03/14 09:36:16;;;;;;;25.45;10.15;;;;;;;10.31;36.22;92194.56;5015555;28;20037;-65
2022/03/14 09:38:43;;;;;;;27.30;16.55;;;;;;;11.94;33.52;92199.25;5033252;28;20542;-65
2022/03/14 09:41:09;;;;;;;14.93;9.63;;;;;;;12.77;33.47;92193.28;5033503;28;20041;-66
2022/03/14 09:43:39;;;;;;;42.85;22.98;;;;;;;12.05;34.02;92200.72;5033316;28;20045;-65
2022/03/14 09:46:07;;;;;;;13.98;9.30;;;;;;;12.27;35.05;92203.63;5033282;28;20499;-65
2022/03/14 09:48:39;;;;;;;13.38;8.95;;;;;;;9.50;35.73;92201.81;5033412;28;20041;-65
2022/03/14 09:51:06;;;;;;;30.42;16.33;;;;;;;9.39;38.10;92202.09;5033056;28;20107;-66
2022/03/14 09:53:34;;;;;;;31.13;15.15;;;;;;;10.35;36.77;92212.34;5033111;28;20037;-65
2022/03/14 09:56:00;;;;;;;18.10;11.50;;;;;;;9.12;36.78;92205.88;5029773;28;20086;-66
2022/03/14 09:58:26;;;;;;;16.42;9.88;;;;;;;11.73;36.67;92200.53;5033007;28;20085;-65
2022/03/14 10:00:51;;;;;;;46.85;27.75;;;;;;;12.08;34.45;92197.47;5033213;28;20065;-65
2022/03/14 10:03:18;;;;;;;12.50;8.35;;;;;;;12.16;35.84;92202.19;5033356;28;20103;-65
2022/03/14 10:05:44;;;;;;;36.28;30.08;;;;;;;9.71;36.77;92210.50;5032652;28;20057;-65
2022/03/14 10:08:14;;;;;;;17.88;12.70;;;;;;;9.21;37.25;92216.75;5038394;28;20139;-65
2022/03/14 10:10:39;;;;;;;18.15;13.27;;;;;;;10.77;36.62;92203.84;5052708;28;20102;-65
2022/03/14 10:13:06;;;;;;;25.92;20.65;;;;;;;11.01;38.07;92201.22;5052585;28;20060;-65
2022/03/14 10:15:36;;;;;;;30.52;22.15;;;;;;;12.09;34.78;92207.06;5047762;28;20434;-67
2022/03/14 10:18:15;;;;;;;18.65;11.45;;;;;;;10.80;37.78;92211.25;5024999;28;20555;-64
2022/03/14 10:21:02;;;;;;;14.95;10.18;;;;;;;12.20;35.85;92205.84;5046221;28;20044;-64
2022/03/14 10:23:43;;;;;;;12.85;7.13;;;;;;;9.65;37.00;92206.28;5051305;28;20526;-65
2022/03/14 10:26:16;;;;;;;9.80;7.35;;;;;;;8.42;37.86;92207.47;5052193;28;20075;-64
2022/03/14 10:28:41;;;;;;;11.10;7.85;;;;;;;8.02;38.45;92211.59;5052122;28;20031;-66
2022/03/14 10:31:07;;;;;;;25.65;17.10;;;;;;;8.85;39.71;92198.22;5051999;28;20041;-64
2022/03/14 10:33:34;;;;;;;18.77;12.43;;;;;;;9.74;38.63;92198.53;5051792;28;20052;-65
2022/03/14 10:36:00;;;;;;;9.32;8.25;;;;;;;9.11;36.54;92193.66;5051836;28;20094;-64
2022/03/14 10:38:26;;;;;;;69.90;38.10;;;;;;;11.07;36.11;92196.66;5051075;28;20033;-64
2022/03/14 10:40:53;;;;;;;16.20;12.52;;;;;;;12.39;33.88;92199.75;5031898;28;20025;-65
2022/03/14 10:43:31;;;;;;;10.38;7.82;;;;;;;13.44;34.97;92201.88;5031721;28;20033;-64
2022/03/14 10:45:58;;;;;;;9.00;6.55;;;;;;;11.66;35.16;92198.19;5031709;28;20549;-63
2022/03/14 10:48:34;;;;;;;20.50;17.05;;;;;;;12.35;33.75;92201.41;5031510;28;20028;-63
2022/03/14 10:51:05;;;;;;;12.15;8.85;;;;;;;12.87;34.12;92201.16;5030936;28;20063;-63
2022/03/14 10:53:30;;;;;;;10.77;6.95;;;;;;;13.73;31.49;92198.94;5027930;28;20030;-65
2022/03/14 10:56:00;;;;;;;7.65;4.28;;;;;;;13.58;31.68;92201.88;5043423;28;20509;-64
2022/03/14 10:58:33;;;;;;;10.00;5.75;;;;;;;13.07;33.91;92201.91;5029315;28;20447;-64
2022/03/14 11:01:04;;;;;;;11.10;7.72;;;;;;;13.44;33.28;92206.41;5030134;28;20033;-64
2022/03/14 11:03:32;;;;;;;16.95;10.20;;;;;;;15.34;30.57;92196.81;5030741;28;20029;-64
2022/03/14 11:06:01;;;;;;;9.63;6.85;;;;;;;14.85;30.47;92206.56;5036853;28;20041;-64
2022/03/14 11:08:26;;;;;;;26.67;14.60;;;;;;;16.58;29.58;92196.72;5046257;28;20025;-63
2022/03/14 11:10:51;;;;;;;11.43;10.10;;;;;;;13.68;33.87;92198.22;5030869;28;20505;-63
2022/03/14 11:13:18;;;;;;;6.47;5.53;;;;;;;10.41;37.08;92200.63;5030664;28;20491;-63
2022/03/14 11:15:44;;;;;;;7.72;5.38;;;;;;;10.58;37.99;92202.13;5023186;28;20040;-62
2022/03/14 11:18:09;;;;;;;10.45;6.82;;;;;;;11.24;34.31;92196.25;5011270;28;20510;-63
2022/03/14 11:20:35;;;;;;;9.73;6.45;;;;;;;12.46;36.70;92189.50;5009809;28;20018;-63
2022/03/14 11:23:01;;;;;;;6.30;4.93;;;;;;;13.46;33.18;92189.00;5012789;28;20041;-63
2022/03/14 11:25:26;;;;;;;11.45;8.05;;;;;;;14.20;32.97;92180.06;5031014;28;20253;-63